METAR stanice u blizini

 

LYBE - Beograd / Surčin, Srbija
Ažurirano: 03/06/2020 20:00
Vedro
Vedro
 Pravac vetra JZ
Vetar: JZ 15 km/h
Temperatura: 15°C
Tačka rose: 12°C
Vlažnost: 82%
Pritisak: 1007 hPa
Pregled: Vedro
Vidljivost: greater than 10 km
2020/06/03 18:00 LYBE 031800Z 23008KT CAVOK 15/12 Q1007 NOSIG
LYBT - Beograd / Batajnica, Srbija
Ažurirano: 03/06/2020 20:00
Vedro
Vedro
 Pravac vetra JJZ
Vetar: JJZ 17 km/h
Temperatura: 15°C
Tačka rose: 12°C
Vlažnost: 82%
Pritisak: 1006 hPa
Pregled: Vedro
Vidljivost: greater than 10 km
2020/06/03 18:00 LYBT 031800Z 21009KT CAVOK 15/12 Q1006 NOSIG
LYVR - Vršac, Srbija
Ažurirano: 03/06/2020 20:00
Vedro
Vedro
 Pravac vetra J
Vetar: J 7 km/h
Temperatura: 17°C
Tačka rose: 10°C
Vlažnost: 64%
Pritisak: 1006 hPa
Pregled: Vedro
Vidljivost: greater than 10 km
2020/06/03 18:00 LYVR 031800Z AUTO 18004KT CAVOK 17/10 Q1006
 
LYKV - Lađevci, Srbija
Ažurirano: 03/06/2020 20:00
Mostly Cloudy
Mostly Cloudy
 Pravac vetra JJZ
Vetar: JJZ 9 km/h
Temperatura: 14°C
Tačka rose: 14°C
Vlažnost: 100%
Pritisak: 1008 hPa
Oblaci: Mostly Cloudy
Vidljivost: 10 km
Cloud details: Mostly Cloudy 1372 m
2020/06/03 18:00 LYKV 031800Z 21005KT 070V240 9999 BKN045 14/14 Q1008 NOSIG
LYNI - Niš, Srbija
Ažurirano: 03/06/2020 20:00
Few Clouds
Few Clouds
 Pravac vetra calm
Vetar: Tišina
Temperatura: 16°C
Tačka rose: 9°C
Vlažnost: 63%
Pritisak: 1008 hPa
Oblaci: Few Clouds
Vidljivost: 10 km
Cloud details: Few Clouds 1311 m
2020/06/03 18:00 LYNI 031800Z 00000KT 9999 FEW043 16/09 Q1008 NOSIG
BKPR - Priština, Srbija
Ažurirano: 03/06/2020 20:00
Partly Cloudy
Partly Cloudy
 Pravac vetra ZJZ
Vetar: ZJZ 11 km/h
Temperatura: 16°C
Tačka rose: 7°C
Vlažnost: 55%
Pritisak: 1009 hPa
Oblaci: Partly Cloudy
Vidljivost: 10 km
Cloud details: Few Clouds 1219 m
Partly Cloudy 6096 m
2020/06/03 18:00 BKPR 031800Z 24006KT 9999 FEW040 SCT200 16/07 Q1009 NOSIG
 
LHPP - Pecs / Pogany, Hungary
Ažurirano: 03/06/2020 19:45
Mostly Cloudy
Mostly Cloudy
 Pravac vetra Z
Vetar: Z 9 km/h
Temperatura: 14°C
Tačka rose: 12°C
Vlažnost: 88%
Pritisak: 1006 hPa
Oblaci: Mostly Cloudy
Vidljivost: 10 km
Cloud details: Few Clouds 792 m
Mostly Cloudy 2530 m
2020/06/03 17:45 LHPP 031745Z 27005KT 9999 FEW026CB BKN083 14/12 Q1006
LHUD - Szeged, Hungary
Ažurirano: 04/07/2019 01:45
NOT Current
Vedro
Vedro
 Pravac vetra S
Vetar: S 7 km/h
Temperatura: 18°C
Tačka rose: 13°C
Vlažnost: 73%
Pritisak: 1019 hPa
Pregled: Vedro
Vidljivost: greater than 10 km
2019/07/03 23:45 LHUD 032345Z 35004KT CAVOK 18/13 Q1019
LRTR - Timisoara, Romania
Ažurirano: 03/06/2020 20:00
Few Clouds
Few Clouds
 Pravac vetra J
Vetar: J 20 km/h
Temperatura: 14°C
Tačka rose: 12°C
Vlažnost: 88%
Pritisak: 1006 hPa
Oblaci: Few Clouds
Vidljivost: 10 km
Cloud details: Few Clouds 1524 m
2020/06/03 18:00 LRTR 031800Z 17011KT 9999 FEW050CB 14/12 Q1006 R11/290095
 
LRCV - Craiova, Romania
Ažurirano: 03/06/2020 20:00
Vedro
Vedro
 Pravac vetra ZJZ
Vetar: ZJZ 15 km/h
Temperatura: 17°C
Tačka rose: 8°C
Vlažnost: 56%
Pritisak: 1006 hPa
Pregled: Vedro
Vidljivost: greater than 10 km
2020/06/03 18:00 LRCV 031800Z 25008KT CAVOK 17/08 Q1006
LBSF - Sofia, Bulgaria
Ažurirano: 03/06/2020 20:00
Few Clouds
Few Clouds
 Pravac vetra SZ
Vetar: SZ 7 km/h
Temperatura: 14°C
Tačka rose: 6°C
Vlažnost: 59%
Pritisak: 1009 hPa
Oblaci: Few Clouds
Vidljivost: 10 km
Cloud details: Few Clouds 1737 m
2020/06/03 18:00 LBSF 031800Z 31004KT 9999 FEW057 14/06 Q1009 NOSIG
LWSK - Skoplje, Makedonija
Ažurirano: 03/06/2020 20:00
Vedro
Vedro
 Pravac vetra I
Vetar: I 7 km/h
Temperatura: 17°C
Tačka rose: 8°C
Vlažnost: 56%
Pritisak: 1009 hPa
Pregled: Vedro
Vidljivost: greater than 10 km
2020/06/03 18:00 LWSK 031800Z 10004KT CAVOK 17/08 Q1009 NOSIG
 
LYPG - Podgorica, Crna Gora
Ažurirano: 03/06/2020 20:00
Partly Cloudy
Partly Cloudy
 Pravac vetra SZ
Vetar: SZ 9 km/h
Temperatura: 19°C
Tačka rose: 14°C
Vlažnost: 73%
Pritisak: 1009 hPa
Oblaci: Partly Cloudy
Vidljivost: 10 km
Cloud details: Partly Cloudy 1006 m
2020/06/03 18:00 LYPG 031800Z 32005KT 9999 SCT033 19/14 Q1009 NOSIG
LQSA - Sarajevo, Bosna i Hercegovina
Ažurirano: 03/06/2020 18:30
NOT Current
Light thunderstorm, Padavine, Pretežno oblačno
Light thunderstorm, Padavine, Pretežno oblačno
 Pravac vetra SSZ
Vetar: SSZ 19 km/h, Maks.: 46 km/h
Temperatura: 17°C
Tačka rose: 11°C
Vlažnost: 68%
Pritisak: 1009 hPa
Pregled: Light thunderstorm, Padavine
Oblaci: Mostly Cloudy
Vidljivost: 10 km
Cloud details: Few Clouds 914 m
Partly Cloudy 1219 m
Mostly Cloudy 1524 m
2020/06/03 16:30 LQSA 031630Z 34010G25KT 280V020 9999 -TSRA FEW030CB SCT040 BKN050 17/11 Q1009 NOSIG
LDOS - Osijek, Hrvatksa
Ažurirano: 03/06/2020 20:00
Few Clouds
Few Clouds
 Pravac vetra JJI
Vetar: JJI 9 km/h
Temperatura: 15°C
Tačka rose: 14°C
Vlažnost: 94%
Pritisak: 1006 hPa
Oblaci: Few Clouds
Vidljivost: 10 km
Cloud details: Few Clouds 1219 m
2020/06/03 18:00 LDOS 031800Z 15005KT 9999 FEW040 15/14 Q1006